Juniata, Nebraska
Current Conditions -  °F | °C
As of 3:53 AM on Friday 24 Oct 2014 (Local Time) from KHSI Reporting Station
Haze Haze  
Wind Chill: 57°   Ceiling: Unl
Heat Index: 57°   Visibility: 6mi
Dew Point: 53°   Wind: 9mph
Humidity: 87%   Direction: 210°SSW
Pressure: 29.97"   Gusts: NA
Location:  40.59°N, 98.51°W
Report Text: KHSI 240853Z AUTO 21008KT 6SM BR CLR 14/12 A2997 RMK AO2 SLP144 T01390117 58007
Loading
Personal Weather Stations






























Interactive Weather Map New forecast layout! Learn more

10-Day Weather Forecast

Advertisements
Track Severe Weather on mobile